Latest Coastal Weather Observations for Low Head

IDV60701

Issued at 5:02 pm EST Tuesday 23 May 2017 (issued every 10 minutes, with the page automatically refreshed every 10 minutes)

About coastal observations | Map of coastal stations | Coastal observations for VIC | Marine services | Other Formats
Station Details ID: 091293 Name: LOW HEAD Lat: -41.05 Lon: 146.79 Height: 3.0 m
Data from the previous 72 hours. | See also: Recent months at Low Head
Date/Time
EST
Temp
°C
Wind Pressure Rain since
9am
mm
Weather Cloud Vis
km
Sea
Height
m
Swell
Dir  Spd
kts
Gust
kts
hPa Trend Height
m
Period
s
Dir
23/04:30pm 15.4 NNW 11 12 1012.6 - - - - - - - - -
23/04:00pm 15.2 N 6 8 1012.6 - - - - - - - - -
23/03:30pm 15.3 NNW 6 8 1012.8 - - - - - - - - -
23/03:00pm 15.4 NNW 7 8 1013.1 - - - - - - - - -
23/02:30pm 15.6 NW 7 9 1012.9 - - - - - - - - -
23/02:00pm 15.6 NW 7 8 1013.3 - - - - - - - - -
23/01:30pm 15.8 NW 8 10 1013.6 - - - - - - - - -
23/01:00pm 15.4 W 11 13 1013.8 - - - - - - - - -
23/12:30pm 15.3 WNW 14 18 1014.2 - - - - - - - - -
23/12:00pm 15.6 N 15 - 1014.9 - - - - - - - - -
23/11:30am 15.2 NNW 17 22 1015.2 - 0.0 - - - - - - -
23/11:00am 16.1 NNW 13 18 1015.4 - 0.0 - - - - - - -
23/10:30am 16.5 NNW 11 14 1015.1 - 0.0 - - - - - - -
23/10:00am 16.3 NNW 11 14 1015.5 - 0.0 - - - - - - -
23/09:30am 16.3 N 10 11 1015.5 - 0.0 - - - - - - -
23/09:00am 16.1 NNE 10 15 1015.8 - 0.0 - - - - - - -
23/08:30am 15.0 ENE 12 14 1015.8 - 0.0 - - - - - - -
23/08:00am 14.8 ENE 13 15 1016.0 - 0.0 - - - - - - -
23/07:30am 13.8 E 11 15 1015.5 - 0.0 - - - - - - -
23/07:00am 14.3 ENE 12 14 1015.8 - 0.0 - - - - - - -
23/06:30am 14.0 ENE 11 14 1016.2 - 0.0 - - - - - - -
23/06:00am 13.3 E 10 12 1016.0 - 0.0 - - - - - - -
23/05:30am 12.9 E 9 10 1016.3 - 0.0 - - - - - - -
23/05:00am 12.6 E 9 9 1016.4 - 0.0 - - - - - - -
23/04:30am 12.7 E 9 10 1016.5 - 0.0 - - - - - - -
23/04:00am 12.8 E 9 11 1016.5 - 0.0 - - - - - - -
23/03:30am 12.5 E 9 11 1016.4 - 0.0 - - - - - - -
23/03:00am 12.3 E 5 8 1016.7 - 0.0 - - - - - - -
23/02:30am 12.8 E 5 7 1017.2 - 0.0 - - - - - - -
23/02:00am 12.8 ESE 5 7 1017.3 - 0.0 - - - - - - -
23/01:30am 12.8 ESE 5 6 1017.2 - 0.0 - - - - - - -
23/01:00am 13.0 E 6 9 1017.3 - 0.0 - - - - - - -
23/12:30am 13.3 E 8 13 1017.6 - 0.0 - - - - - - -
23/12:00am 13.1 ESE 5 6 1018.5 - 0.0 - - - - - - -
 
Date/Time
EST
Temp
°C
Wind Pressure Rain since
9am
mm
Weather Cloud Vis
km
Sea
Height
m
Swell
Dir  Spd
kts
Gust
kts
hPa Trend Height
m
Period
s
Dir
22/11:30pm 13.1 ESE 6 9 1018.5 - 0.0 - - - - - - -
22/11:00pm 13.0 ESE 7 10 1018.5 - 0.0 - - - - - - -
22/10:30pm 13.1 ESE 7 10 1018.6 - 0.0 - - - - - - -
22/10:00pm 13.5 ESE 7 8 1019.0 - 0.0 - - - - - - -
22/09:30pm 13.5 E 7 9 1019.0 - 0.0 - - - - - - -
22/09:00pm 13.4 E 8 9 1018.8 - 0.0 - - - - - - -
22/08:30pm 13.8 E 8 9 1018.9 - 0.0 - - - - - - -
22/08:00pm 14.2 E 7 8 1018.9 - 0.0 - - - - - - -
22/07:30pm 14.2 E 6 8 1018.9 - 0.0 - - - - - - -
22/07:00pm 15.7 NE 9 10 1018.8 - 0.0 - - - - - - -
22/06:30pm 15.8 NE 9 11 1018.7 - 0.0 - - - - - - -
22/06:00pm 15.8 NE 8 10 1018.6 - 0.0 - - - - - - -
22/05:30pm 15.9 NNE 10 11 1018.7 - 0.0 - - - - - - -
22/05:00pm 15.9 NNE 8 11 1018.5 - 0.0 - - - - - - -
22/04:30pm 16.0 N 9 9 1018.4 - 0.0 - - - - - - -
22/04:00pm 16.3 NNE 7 8 1018.4 - 0.0 - - - - - - -
22/03:30pm 16.3 N 7 7 1018.5 - 0.0 - - - - - - -
22/03:00pm 16.5 N 6 6 1018.5 - 0.0 - - - - - - -
22/02:30pm 17.5 N 4 5 1018.7 - 0.0 - - - - - - -
22/02:00pm 17.5 NNW 5 6 1018.8 - 0.0 - - - - - - -
22/01:30pm 16.6 NNE 6 7 1019.1 - 0.0 - - - - - - -
22/01:00pm 16.9 NE 7 8 1019.4 - 0.0 - - - - - - -
22/12:30pm 16.1 NE 8 9 1019.5 - 0.0 - - - - - - -
22/12:00pm 16.0 NE 8 9 1019.8 - 0.0 - - - - - - -
22/11:30am 15.5 E 4 5 1020.4 - 0.0 - - - - - - -
22/11:00am 14.6 SSE 4 5 1020.7 - 0.0 - - - - - - -
22/10:30am 14.0 SSE 5 6 1020.8 - 0.0 - - - - - - -
22/10:00am 12.9 SSE 6 8 1021.1 - 0.0 - - - - - - -
22/09:30am 12.4 S 6 8 1021.4 - 0.0 - - - - - - -
22/09:00am 12.6 SE 3 4 1021.3 - 0.0 - - - - - - -
22/08:30am 11.9 SE 4 6 1021.1 - 0.0 - - - - - - -
22/08:00am 12.0 ESE 7 8 1020.9 - 0.0 - - - - - - -
22/07:30am 11.2 E 7 8 1020.8 - 0.0 - - - - - - -
22/07:00am 10.7 E 7 8 1020.6 - 0.0 - - - - - - -
22/06:30am 11.0 E 6 7 1020.2 - 0.0 - - - - - - -
22/06:00am 11.4 ESE 1 4 1020.0 - 0.0 - - - - - - -
22/05:30am 12.4 SSW 3 4 1019.8 - 0.0 - - - - - - -
22/05:00am 13.5 WSW 5 6 1019.8 - 0.0 - - - - - - -
22/04:30am 13.2 W 3 4 1019.6 - 0.0 - - - - - - -
22/04:00am 13.4 WSW 4 5 1019.5 - 0.0 - - - - - - -
22/03:30am 13.8 W 6 7 1019.5 - 0.0 - - - - - - -
22/03:00am 14.0 W 7 8 1019.6 - 0.0 - - - - - - -
22/02:30am 14.0 W 6 7 1019.5 - 0.0 - - - - - - -
22/02:00am 13.8 WSW 4 6 1019.3 - 0.0 - - - - - - -
22/01:30am 14.1 WSW 5 6 1019.2 - 0.0 - - - - - - -
22/01:00am 14.4 WSW 7 8 1019.3 - 0.0 - - - - - - -
22/12:30am 14.7 W 12 14 1019.3 - 0.0 - - - - - - -
22/12:00am 14.6 WSW 8 10 1019.4 - 0.0 - - - - - - -
 
Date/Time
EST
Temp
°C
Wind Pressure Rain since
9am
mm
Weather Cloud Vis
km
Sea
Height
m
Swell
Dir  Spd
kts
Gust
kts
hPa Trend Height
m
Period
s
Dir
21/11:30pm 15.2 W 13 15 1019.2 - 0.0 - - - - - - -
21/11:00pm 15.2 W 14 15 1019.1 - 0.0 - - - - - - -
21/10:30pm 15.2 WNW 13 15 1019.0 - 0.0 - - - - - - -
21/10:00pm 15.3 WNW 13 15 1019.1 - 0.0 - - - - - - -
21/09:30pm 15.3 WNW 13 15 1019.0 - 0.0 - - - - - - -
21/09:00pm 15.4 W 12 14 1018.8 - 0.0 - - - - - - -
21/08:30pm 15.4 WNW 13 16 1018.6 - 0.0 - - - - - - -
21/08:00pm 15.5 WNW 14 17 1018.5 - 0.0 - - - - - - -
21/07:30pm 15.5 WNW 12 15 1018.3 - 0.0 - - - - - - -
21/07:00pm 15.4 WNW 12 14 1018.0 - 0.0 - - - - - - -
21/06:30pm 15.4 WNW 11 13 1017.8 - 0.0 - - - - - - -
21/06:00pm 15.5 W 10 13 1017.6 - 0.0 - - - - - - -
21/05:30pm 15.6 WNW 11 12 1017.3 - 0.0 - - - - - - -
21/05:00pm 15.4 NW 7 8 1017.0 - 0.0 - - - - - - -
21/04:30pm 15.3 NW 6 7 1017.0 - 0.0 - - - - - - -
21/04:00pm 15.4 W 7 8 1016.9 - 0.0 - - - - - - -
21/03:30pm 15.4 WNW 7 8 1016.8 - 0.0 - - - - - - -
21/03:00pm 15.5 WNW 8 10 1016.7 - 0.0 - - - - - - -
21/02:30pm 15.4 WNW 7 9 1016.6 - 0.0 - - - - - - -
21/02:00pm 16.0 WNW 7 8 1016.7 - 0.0 - - - - - - -
21/01:30pm 15.9 WNW 6 7 1016.7 - 0.0 - - - - - - -
21/01:00pm 14.6 WNW 7 8 1016.9 - 0.0 - - - - - - -
21/12:30pm 15.5 WNW 8 9 1017.0 - 0.0 - - - - - - -
21/12:00pm 14.7 NW 4 5 1017.4 - 0.0 - - - - - - -
21/11:30am 13.1 WNW 4 5 1017.6 - 0.0 - - - - - - -
21/11:00am 12.0 CALM 0 3 1017.8 - 0.0 - - - - - - -
21/10:30am 11.1 WSW 4 6 1017.7 - 0.0 - - - - - - -
21/10:00am 11.0 SSW 6 7 1017.7 - 0.0 - - - - - - -
21/09:30am 11.0 S 8 9 1017.8 - 0.0 - - - - - - -
21/09:00am 11.0 S 9 10 1017.8 - 0.0 - - - - - - -
21/08:30am 11.2 S 9 11 1017.6 - 0.0 - - - - - - -
21/08:00am 10.7 SSE 9 11 1017.4 - 0.0 - - - - - - -
21/07:30am 10.9 SSE 9 11 1017.1 - 0.0 - - - - - - -
21/07:00am 10.8 SSE 11 13 1017.0 - 0.0 - - - - - - -
21/06:30am 11.1 SSE 10 13 1016.8 - 0.0 - - - - - - -
21/06:00am 11.1 S 10 11 1016.8 - 0.0 - - - - - - -
21/05:30am 11.3 S 8 9 1016.6 - 0.0 - - - - - - -
21/05:00am 10.9 S 7 8 1016.5 - 0.0 - - - - - - -
21/04:30am 11.6 SSW 9 11 1016.5 - 0.0 - - - - - - -
21/04:00am 11.6 S 9 11 1016.8 - 0.0 - - - - - - -
21/03:30am 11.8 S 10 13 1016.9 - 0.0 - - - - - - -
21/03:00am 12.1 S 10 12 1017.0 - 0.0 - - - - - - -
21/02:30am 12.0 S 8 10 1017.2 - 0.0 - - - - - - -
21/02:00am 11.8 SSE 9 11 1017.3 - 0.0 - - - - - - -
21/01:30am 12.1 S 10 12 1017.2 - 0.0 - - - - - - -
21/01:00am 12.2 SSE 10 12 1017.4 - 0.0 - - - - - - -
21/12:30am 12.2 S 9 10 1017.6 - 0.0 - - - - - - -
21/12:00am 12.1 S 7 8 1017.7 - 0.0 - - - - - - -
 
Date/Time
EST
Temp
°C
Wind Pressure Rain since
9am
mm
Weather Cloud Vis
km
Sea
Height
m
Swell
Dir  Spd
kts
Gust
kts
hPa Trend Height
m
Period
s
Dir
20/11:30pm 11.8 SSE 7 8 1017.8 - 0.0 - - - - - - -
20/11:00pm 11.9 SSE 9 11 1017.7 - 0.0 - - - - - - -
20/10:30pm 12.3 SSE 7 8 1017.8 - 0.0 - - - - - - -
20/10:00pm 12.7 SSE 7 8 1017.7 - 0.0 - - - - - - -
20/09:30pm 13.6 S 7 8 1017.8 - 0.0 - - - - - - -
20/09:00pm 14.9 NW 3 5 1017.6 - 0.0 - - - - - - -
20/08:30pm 15.0 NW 5 6 1017.5 - 0.0 - - - - - - -
20/08:00pm 15.2 NNW 7 7 1017.4 - 0.0 - - - - - - -
20/07:30pm 15.4 NNW 6 8 1017.2 - 0.0 - - - - - - -
20/07:00pm 15.4 N 6 7 1016.9 - 0.0 - - - - - - -
20/06:30pm 15.6 N 7 9 1016.8 - 0.0 - - - - - - -
20/06:00pm 15.6 N 9 11 1016.5 - 0.0 - - - - - - -
20/05:30pm 15.8 N 11 13 1016.1 - 0.0 - - - - - - -

Other Formats:

Comma delimited format used in spreadsheet applications
http://www.bom.gov.au/fwo/IDV60701/IDV60701.95964.axf

JavaScript Object Notation format (JSON) in row-major order
http://www.bom.gov.au/fwo/IDV60701/IDV60701.95964.json